createdAt,value
2022-11-12T00:00:48.210Z,9.17
2022-11-12T00:03:34.627Z,9.15
2022-11-12T00:06:20.918Z,9.13
2022-11-12T00:09:08.859Z,9.06
2022-11-12T00:11:55.277Z,9.13
2022-11-12T00:14:41.703Z,9.09
2022-11-12T00:17:28.122Z,9.08
2022-11-12T00:20:14.842Z,9.09
2022-11-12T00:23:01.307Z,9.05
2022-11-12T00:25:49.243Z,9.01
2022-11-12T00:28:38.248Z,9.02
2022-11-12T00:31:25.247Z,9.02
2022-11-12T00:34:11.575Z,8.95
2022-11-12T00:36:57.892Z,9.04
2022-11-12T00:39:44.197Z,8.99
2022-11-12T00:42:31.916Z,8.90
2022-11-12T00:45:18.251Z,8.86
2022-11-12T00:48:04.790Z,8.87
2022-11-12T00:50:51.346Z,8.88
2022-11-12T00:53:37.975Z,8.86
2022-11-12T00:56:24.152Z,8.82
2022-11-12T00:59:12.031Z,8.83
2022-11-12T01:01:58.390Z,8.80
2022-11-12T01:04:44.689Z,8.77
2022-11-12T01:07:31.095Z,8.74
2022-11-12T01:10:17.534Z,8.58
2022-11-12T01:13:04.091Z,8.69
2022-11-12T01:15:51.872Z,8.77
2022-11-12T01:18:38.737Z,8.79
2022-11-12T01:21:26.135Z,8.79
2022-11-12T01:24:13.086Z,8.78
2022-11-12T01:26:59.417Z,8.70
2022-11-12T01:29:45.592Z,8.80
2022-11-12T01:32:35.948Z,8.74
2022-11-12T01:35:22.475Z,8.69
2022-11-12T01:38:08.849Z,8.70
2022-11-12T01:40:55.195Z,8.66
2022-11-12T01:43:41.502Z,8.71
2022-11-12T01:46:31.169Z,8.67
2022-11-12T01:49:22.950Z,8.54
2022-11-12T01:52:18.447Z,8.66
2022-11-12T01:55:09.018Z,8.65
2022-11-12T01:58:00.691Z,8.64
2022-11-12T02:00:49.004Z,8.57
2022-11-12T02:03:35.777Z,8.61
2022-11-12T02:06:25.117Z,8.64
2022-11-12T02:09:11.708Z,8.56
2022-11-12T02:12:00.662Z,8.62
2022-11-12T02:14:46.260Z,8.53
2022-11-12T02:17:32.779Z,8.57
2022-11-12T02:20:19.171Z,8.60
2022-11-12T02:23:08.506Z,8.58
2022-11-12T02:25:54.935Z,8.63
2022-11-12T02:28:41.818Z,8.57
2022-11-12T02:31:28.099Z,8.50
2022-11-12T02:34:15.008Z,8.48
2022-11-12T02:37:01.324Z,8.50
2022-11-12T02:39:49.083Z,8.51
2022-11-12T02:42:35.565Z,8.49
2022-11-12T02:45:22.473Z,8.49
2022-11-12T02:48:08.716Z,8.46
2022-11-12T02:50:55.012Z,8.28
2022-11-12T02:53:41.559Z,8.46
2022-11-12T02:56:29.189Z,8.43
2022-11-12T02:59:15.448Z,8.47
2022-11-12T03:02:01.813Z,8.48
2022-11-12T03:04:49.613Z,8.46
2022-11-12T03:07:36.405Z,8.43
2022-11-12T03:10:22.753Z,8.29
2022-11-12T03:13:11.784Z,8.25
2022-11-12T03:16:00.863Z,8.29
2022-11-12T03:18:47.387Z,8.23
2022-11-12T03:21:34.067Z,8.20
2022-11-12T03:24:20.328Z,8.22
2022-11-12T03:27:06.517Z,8.14
2022-11-12T03:29:54.379Z,8.17
2022-11-12T03:32:40.668Z,8.18
2022-11-12T03:35:27.876Z,8.13
2022-11-12T03:38:14.436Z,8.18
2022-11-12T03:41:00.760Z,8.18
2022-11-12T03:43:47.648Z,8.09
2022-11-12T03:46:38.891Z,8.15
2022-11-12T03:49:28.444Z,8.10
2022-11-12T03:52:14.916Z,8.05
2022-11-12T03:55:01.093Z,8.08
2022-11-12T03:57:49.284Z,8.12
2022-11-12T04:00:35.844Z,8.10
2022-11-12T04:03:23.657Z,8.13
2022-11-12T04:06:27.395Z,8.15
2022-11-12T04:09:14.195Z,8.13
2022-11-12T04:12:20.764Z,8.11
2022-11-12T04:15:07.737Z,8.13
2022-11-12T04:18:11.382Z,8.12
2022-11-12T04:21:15.942Z,8.07
2022-11-12T04:24:02.328Z,8.06
2022-11-12T04:26:47.956Z,8.07
2022-11-12T04:29:51.561Z,8.09
2022-11-12T04:32:40.272Z,8.02
2022-11-12T04:35:28.410Z,8.09
2022-11-12T04:38:16.402Z,7.97
2022-11-12T04:41:28.431Z,8.13
2022-11-12T04:44:32.678Z,8.15
2022-11-12T04:47:19.329Z,8.14
2022-11-12T04:50:08.036Z,8.22
2022-11-12T04:52:54.409Z,8.21
2022-11-12T04:55:42.166Z,8.22
2022-11-12T04:58:29.116Z,8.20
2022-11-12T05:01:16.294Z,8.24
2022-11-12T05:04:03.104Z,8.29
2022-11-12T05:06:52.471Z,8.29
2022-11-12T05:09:40.053Z,8.27
2022-11-12T05:12:28.248Z,8.28
2022-11-12T05:15:14.863Z,8.33
2022-11-12T05:18:01.630Z,8.30
2022-11-12T05:20:48.003Z,8.35
2022-11-12T05:23:34.623Z,8.31
2022-11-12T05:26:20.867Z,8.35
2022-11-12T05:29:09.149Z,8.40
2022-11-12T05:31:55.532Z,8.37
2022-11-12T05:34:42.130Z,8.42
2022-11-12T05:37:28.814Z,8.39
2022-11-12T05:40:15.388Z,8.45
2022-11-12T05:43:02.051Z,8.47
2022-11-12T05:45:49.697Z,8.48
2022-11-12T05:48:35.828Z,8.49
2022-11-12T05:51:22.150Z,8.41
2022-11-12T05:54:08.788Z,8.51
2022-11-12T05:56:55.362Z,8.55
2022-11-12T05:59:41.599Z,8.54
2022-11-12T06:02:29.454Z,8.60
2022-11-12T06:05:16.378Z,8.67
2022-11-12T06:08:04.011Z,8.72
2022-11-12T06:10:50.944Z,8.72
2022-11-12T06:13:37.524Z,8.70
2022-11-12T06:16:24.626Z,8.68
2022-11-12T06:19:12.529Z,8.69
2022-11-12T06:21:59.226Z,8.77
2022-11-12T06:24:46.108Z,8.68
2022-11-12T06:27:32.797Z,8.75
2022-11-12T06:30:23.012Z,8.81
2022-11-12T06:33:11.969Z,8.83
2022-11-12T06:36:03.076Z,8.88
2022-11-12T06:38:49.969Z,8.94
2022-11-12T06:41:36.475Z,8.93
2022-11-12T06:44:22.865Z,8.96
2022-11-12T06:47:09.935Z,8.97
2022-11-12T06:49:56.559Z,9.07
2022-11-12T06:52:44.512Z,8.98
2022-11-12T06:55:30.940Z,8.94
2022-11-12T06:58:17.277Z,9.03
2022-11-12T07:01:11.796Z,9.14
2022-11-12T07:03:59.108Z,9.15
2022-11-12T07:06:45.830Z,9.30
2022-11-12T07:09:33.980Z,9.42
2022-11-12T07:12:20.616Z,9.49
2022-11-12T07:15:08.080Z,9.81
2022-11-12T07:17:54.344Z,10.16
2022-11-12T07:20:41.187Z,10.51
2022-11-12T07:23:28.475Z,10.79
2022-11-12T07:26:17.962Z,11.28
2022-11-12T07:29:04.559Z,10.91
2022-11-12T07:31:50.960Z,10.99
2022-11-12T07:34:37.319Z,10.97
2022-11-12T07:37:23.519Z,11.01
2022-11-12T07:40:10.585Z,11.35
2022-11-12T07:43:00.129Z,12.24
2022-11-12T07:45:46.549Z,13.25
2022-11-12T07:48:33.427Z,13.77
2022-11-12T07:51:22.376Z,14.12
2022-11-12T07:54:09.045Z,14.41
2022-11-12T07:56:55.556Z,14.39
2022-11-12T07:59:46.139Z,14.71
2022-11-12T08:02:33.164Z,14.13
2022-11-12T08:05:21.533Z,13.78
2022-11-12T08:08:08.523Z,14.14
2022-11-12T08:10:56.609Z,14.71
2022-11-12T08:13:43.171Z,15.42
2022-11-12T08:16:30.972Z,15.83
2022-11-12T08:19:17.243Z,15.78
2022-11-12T08:22:04.240Z,15.40
2022-11-12T08:24:50.737Z,14.95
2022-11-12T08:27:37.141Z,15.27
2022-11-12T08:30:23.447Z,15.92
2022-11-12T08:33:11.224Z,16.56
2022-11-12T08:35:59.108Z,16.89
2022-11-12T08:38:45.485Z,16.50
2022-11-12T08:41:32.044Z,16.59
2022-11-12T08:44:18.263Z,16.20
2022-11-12T08:47:04.742Z,16.11
2022-11-12T08:49:52.645Z,16.06
2022-11-12T08:52:39.407Z,17.28
2022-11-12T08:55:25.751Z,17.40
2022-11-12T08:58:12.135Z,17.92
2022-11-12T09:01:04.611Z,17.87
2022-11-12T09:03:51.219Z,18.32
2022-11-12T09:06:38.890Z,18.20
2022-11-12T09:09:25.758Z,19.08
2022-11-12T09:12:19.648Z,18.89
2022-11-12T09:15:36.378Z,19.11
2022-11-12T09:18:15.230Z,19.22
2022-11-12T09:21:03.059Z,20.29
2022-11-12T09:23:51.078Z,20.62
2022-11-12T09:26:37.458Z,20.80
2022-11-12T09:29:23.820Z,20.96
2022-11-12T09:32:10.449Z,20.80
2022-11-12T09:34:56.839Z,21.68
2022-11-12T09:37:43.420Z,21.33
2022-11-12T09:40:42.768Z,21.79
2022-11-12T09:43:32.130Z,22.14
2022-11-12T09:46:40.174Z,22.79
2022-11-12T09:49:30.186Z,22.59
2022-11-12T09:52:20.851Z,23.49
2022-11-12T09:55:15.216Z,23.22
2022-11-12T09:58:03.831Z,22.21
2022-11-12T10:00:56.199Z,22.77
2022-11-12T10:03:50.246Z,23.41
2022-11-12T10:06:53.266Z,22.97
2022-11-12T10:09:52.674Z,22.18
2022-11-12T10:12:52.405Z,21.66
2022-11-12T10:16:07.199Z,22.07
2022-11-12T10:19:22.486Z,22.48
2022-11-12T10:22:24.480Z,22.36
2022-11-12T10:25:19.952Z,22.50
2022-11-12T10:28:26.785Z,22.61
2022-11-12T10:31:20.640Z,22.89
2022-11-12T10:34:17.208Z,23.49
2022-11-12T10:37:07.118Z,22.95
2022-11-12T10:39:53.970Z,22.90
2022-11-12T10:42:57.847Z,23.68
2022-11-12T10:48:59.920Z,23.95
2022-11-12T10:51:56.298Z,23.91
2022-11-12T10:54:42.666Z,23.34
2022-11-12T10:57:29.677Z,23.35
2022-11-12T11:00:19.888Z,22.36
2022-11-12T11:03:24.296Z,22.61
2022-11-12T11:06:25.644Z,23.40
2022-11-12T11:09:18.130Z,23.50
2022-11-12T11:12:25.501Z,23.77
2022-11-12T11:15:21.766Z,24.05
2022-11-12T11:18:12.148Z,24.51
2022-11-12T11:21:29.690Z,24.46
2022-11-12T11:24:41.627Z,24.09
2022-11-12T11:27:38.888Z,23.74
2022-11-12T11:30:33.116Z,23.85
2022-11-12T11:33:32.200Z,24.04
2022-11-12T11:36:32.855Z,23.92
2022-11-12T11:39:36.378Z,24.92
2022-11-12T11:42:49.559Z,25.36
2022-11-12T11:45:53.973Z,24.88
2022-11-12T11:48:51.834Z,24.78
2022-11-12T11:51:52.176Z,24.60
2022-11-12T11:55:00.434Z,24.81
2022-11-12T11:57:59.264Z,24.77
2022-11-12T12:00:57.505Z,24.98
2022-11-12T12:03:58.148Z,24.82
2022-11-12T12:06:55.129Z,25.37
2022-11-12T12:09:49.925Z,25.67
2022-11-12T12:12:49.966Z,24.92
2022-11-12T12:15:47.537Z,25.04
2022-11-12T12:18:43.996Z,25.12
2022-11-12T12:21:33.070Z,24.33
2022-11-12T12:24:24.175Z,24.20
2022-11-12T12:27:15.700Z,23.94
2022-11-12T12:30:21.526Z,23.81
2022-11-12T12:33:24.230Z,23.99
2022-11-12T12:36:13.981Z,23.95
2022-11-12T12:39:14.337Z,23.96
2022-11-12T12:42:15.670Z,23.34
2022-11-12T12:45:19.963Z,22.79
2022-11-12T12:48:10.131Z,22.31
2022-11-12T12:50:57.078Z,22.75
2022-11-12T12:53:43.470Z,22.12
2022-11-12T12:56:48.325Z,21.28
2022-11-12T12:59:36.526Z,20.71
2022-11-12T13:02:24.586Z,20.96
2022-11-12T13:05:26.065Z,20.53
2022-11-12T13:08:15.235Z,21.26
2022-11-12T13:11:01.807Z,21.34
2022-11-12T13:13:48.044Z,20.93
2022-11-12T13:17:01.276Z,21.08
2022-11-12T13:20:11.749Z,21.02
2022-11-12T13:23:00.783Z,21.94
2022-11-12T13:25:47.337Z,22.04
2022-11-12T13:28:33.530Z,21.95
2022-11-12T13:31:28.898Z,21.85
2022-11-12T13:34:23.180Z,21.88
2022-11-12T13:37:20.254Z,21.39
2022-11-12T13:40:13.161Z,20.62
2022-11-12T13:43:04.910Z,20.28
2022-11-12T13:45:54.841Z,20.16
2022-11-12T13:48:44.611Z,20.16
2022-11-12T13:51:40.663Z,20.61
2022-11-12T13:54:34.380Z,20.02
2022-11-12T13:57:29.407Z,19.32
2022-11-12T14:00:26.342Z,19.30
2022-11-12T14:03:24.167Z,19.23
2022-11-12T14:06:17.469Z,19.27
2022-11-12T14:09:32.401Z,19.13
2022-11-12T14:12:40.542Z,18.68
2022-11-12T14:15:39.906Z,18.53
2022-11-12T14:18:33.653Z,18.24
2022-11-12T14:21:20.543Z,18.06
2022-11-12T14:24:11.805Z,17.72
2022-11-12T14:26:59.701Z,17.46
2022-11-12T14:29:46.330Z,16.99
2022-11-12T14:32:37.004Z,16.98
2022-11-12T14:35:33.652Z,16.88
2022-11-12T14:38:22.819Z,16.89
2022-11-12T14:41:11.519Z,16.76
2022-11-12T14:44:12.598Z,16.55
2022-11-12T14:47:04.018Z,16.38
2022-11-12T14:50:08.518Z,16.27
2022-11-12T14:53:04.513Z,16.23
2022-11-12T14:55:54.460Z,16.16
2022-11-12T14:58:41.936Z,16.00
2022-11-12T15:04:43.631Z,15.67
2022-11-12T15:07:33.530Z,15.67
2022-11-12T15:10:32.290Z,15.47
2022-11-12T15:13:19.314Z,15.24
2022-11-12T15:16:12.716Z,14.96
2022-11-12T15:19:18.713Z,14.61
2022-11-12T15:22:05.572Z,14.63
2022-11-12T15:24:52.327Z,14.55
2022-11-12T15:27:41.152Z,14.41
2022-11-12T15:30:30.024Z,14.43
2022-11-12T15:33:23.114Z,14.28
2022-11-12T15:36:18.242Z,14.26
2022-11-12T15:39:05.101Z,14.02
2022-11-12T15:41:59.221Z,13.99
2022-11-12T15:44:46.931Z,13.92
2022-11-12T15:47:34.522Z,13.81
2022-11-12T15:50:22.742Z,13.72
2022-11-12T15:53:10.690Z,13.58
2022-11-12T15:55:58.082Z,13.38
2022-11-12T15:58:47.790Z,13.42
2022-11-12T16:01:34.163Z,13.28
2022-11-12T16:04:20.699Z,13.23
2022-11-12T16:07:07.201Z,13.20
2022-11-12T16:09:58.085Z,13.13
2022-11-12T16:12:45.643Z,13.07
2022-11-12T16:15:32.642Z,13.06
2022-11-12T16:18:19.316Z,12.95
2022-11-12T16:21:06.631Z,12.93
2022-11-12T16:23:53.188Z,12.94
2022-11-12T16:26:41.607Z,12.77
2022-11-12T16:29:28.141Z,12.75
2022-11-12T16:32:15.361Z,12.68
2022-11-12T16:35:01.835Z,12.64
2022-11-12T16:37:48.918Z,12.54
2022-11-12T16:40:35.146Z,12.54
2022-11-12T16:43:22.817Z,12.50
2022-11-12T16:46:30.960Z,12.41
2022-11-12T16:49:17.627Z,12.36
2022-11-12T16:52:03.780Z,12.38
2022-11-12T16:54:54.338Z,12.26
2022-11-12T16:57:47.099Z,12.19
2022-11-12T17:00:50.033Z,12.14
2022-11-12T17:03:39.241Z,12.12
2022-11-12T17:06:33.937Z,12.12
2022-11-12T17:09:20.532Z,12.11
2022-11-12T17:12:07.811Z,12.20
2022-11-12T17:15:05.646Z,12.04
2022-11-12T17:17:55.848Z,11.94
2022-11-12T17:20:48.338Z,11.85
2022-11-12T17:23:43.900Z,11.73
2022-11-12T17:26:41.379Z,11.52
2022-11-12T17:29:28.480Z,11.65
2022-11-12T17:32:17.462Z,11.68
2022-11-12T17:35:05.867Z,11.58
2022-11-12T17:37:52.381Z,11.61
2022-11-12T17:40:39.120Z,11.54
2022-11-12T17:43:26.244Z,11.56
2022-11-12T17:46:15.687Z,11.49
2022-11-12T17:49:02.896Z,11.46
2022-11-12T17:51:50.843Z,11.39
2022-11-12T17:54:37.392Z,11.44
2022-11-12T17:57:30.989Z,11.28
2022-11-12T18:00:18.653Z,11.28
2022-11-12T18:03:05.579Z,11.23
2022-11-12T18:05:59.006Z,11.19
2022-11-12T18:08:46.855Z,11.19
2022-11-12T18:11:42.748Z,11.09
2022-11-12T18:14:29.530Z,11.22
2022-11-12T18:17:15.901Z,11.09
2022-11-12T18:20:02.698Z,11.09
2022-11-12T18:22:49.776Z,10.99
2022-11-12T18:25:39.256Z,10.95
2022-11-12T18:28:25.573Z,10.90
2022-11-12T18:31:13.788Z,10.79
2022-11-12T18:34:00.337Z,10.87
2022-11-12T18:36:46.591Z,10.79
2022-11-12T18:39:38.260Z,10.72
2022-11-12T18:42:39.449Z,10.69
2022-11-12T18:45:48.712Z,10.66
2022-11-12T18:48:39.279Z,10.68
2022-11-12T18:51:36.506Z,10.62
2022-11-12T18:54:27.800Z,10.63
2022-11-12T18:57:20.578Z,10.56
2022-11-12T19:00:10.084Z,10.52
2022-11-12T19:03:00.407Z,10.48
2022-11-12T19:05:47.469Z,10.57
2022-11-12T19:08:42.664Z,10.50
2022-11-12T19:11:29.457Z,10.49
2022-11-12T19:14:17.784Z,10.46
2022-11-12T19:17:05.593Z,10.41
2022-11-12T19:19:58.114Z,10.36
2022-11-12T19:22:44.790Z,10.30
2022-11-12T19:25:31.290Z,10.26
2022-11-12T19:28:19.781Z,10.25
2022-11-12T19:31:14.696Z,10.25
2022-11-12T19:34:02.828Z,10.21
2022-11-12T19:37:26.641Z,10.28
2022-11-12T19:40:05.745Z,10.20
2022-11-12T19:42:52.448Z,10.22
2022-11-12T19:45:38.863Z,10.15
2022-11-12T19:48:25.896Z,10.14
2022-11-12T19:51:14.369Z,10.05
2022-11-12T19:54:00.984Z,10.02
2022-11-12T19:56:47.379Z,10.14
2022-11-12T19:59:36.954Z,10.14
2022-11-12T20:02:29.011Z,10.16
2022-11-12T20:05:18.296Z,10.12
2022-11-12T20:08:06.355Z,10.09
2022-11-12T20:10:55.940Z,10.06
2022-11-12T20:13:42.598Z,10.05
2022-11-12T20:16:28.931Z,10.12
2022-11-12T20:19:15.129Z,10.08
2022-11-12T20:22:01.586Z,10.11
2022-11-12T20:24:49.779Z,10.16
2022-11-12T20:27:37.060Z,10.20
2022-11-12T20:30:26.202Z,10.19
2022-11-12T20:33:16.778Z,10.17
2022-11-12T20:36:10.757Z,10.17
2022-11-12T20:38:57.253Z,10.15
2022-11-12T20:41:48.606Z,10.10
2022-11-12T20:44:37.506Z,10.01
2022-11-12T20:47:27.097Z,9.99
2022-11-12T20:50:15.138Z,9.97
2022-11-12T20:53:02.030Z,9.95
2022-11-12T20:55:50.171Z,9.98
2022-11-12T20:58:38.377Z,10.01
2022-11-12T21:01:26.878Z,9.98
2022-11-12T21:04:13.587Z,9.94
2022-11-12T21:07:05.067Z,9.86
2022-11-12T21:09:51.799Z,9.87
2022-11-12T21:12:38.139Z,9.82
2022-11-12T21:15:26.061Z,9.78
2022-11-12T21:18:12.420Z,9.73
2022-11-12T21:21:03.579Z,9.64
2022-11-12T21:23:51.162Z,9.56
2022-11-12T21:26:37.950Z,9.56
2022-11-12T21:29:25.302Z,9.55
2022-11-12T21:32:13.006Z,9.54
2022-11-12T21:34:59.383Z,9.49
2022-11-12T21:37:45.638Z,9.50
2022-11-12T21:40:32.015Z,9.52
2022-11-12T21:43:21.412Z,9.48
2022-11-12T21:46:09.001Z,9.48
2022-11-12T21:48:57.892Z,9.45
2022-11-12T21:51:44.508Z,9.47
2022-11-12T21:54:30.747Z,9.38
2022-11-12T21:57:18.930Z,9.37
2022-11-12T22:00:39.074Z,9.36
2022-11-12T22:03:12.684Z,9.35
2022-11-12T22:06:02.013Z,9.31
2022-11-12T22:08:51.965Z,9.31
2022-11-12T22:11:38.581Z,9.29
2022-11-12T22:14:24.793Z,9.26
2022-11-12T22:17:11.312Z,9.20
2022-11-12T22:19:57.543Z,9.16
2022-11-12T22:22:45.183Z,9.13
2022-11-12T22:25:32.101Z,9.07
2022-11-12T22:28:18.380Z,9.04
2022-11-12T22:31:05.211Z,9.02
2022-11-12T22:33:51.999Z,8.96
2022-11-12T22:36:38.498Z,8.90
2022-11-12T22:39:26.591Z,8.93
2022-11-12T22:42:12.988Z,8.95
2022-11-12T22:44:59.305Z,8.97
2022-11-12T22:47:45.639Z,9.01
2022-11-12T22:50:32.094Z,9.04
2022-11-12T22:53:19.069Z,9.02
2022-11-12T22:56:09.185Z,9.08
2022-11-12T22:58:56.382Z,8.81
2022-11-12T23:01:44.126Z,8.95
2022-11-12T23:04:30.978Z,8.93
2022-11-12T23:07:17.723Z,8.91
2022-11-12T23:10:04.668Z,8.88
2022-11-12T23:12:52.562Z,8.85
2022-11-12T23:15:39.039Z,8.77
2022-11-12T23:18:25.908Z,8.69
2022-11-12T23:21:17.915Z,8.85
2022-11-12T23:24:04.547Z,8.86
2022-11-12T23:26:51.042Z,8.99
2022-11-12T23:29:38.691Z,9.01
2022-11-12T23:32:25.098Z,8.99
2022-11-12T23:35:11.455Z,9.05
2022-11-12T23:37:57.756Z,9.10
2022-11-12T23:40:53.683Z,9.08
2022-11-12T23:43:40.202Z,9.10
2022-11-12T23:46:27.962Z,9.11
2022-11-12T23:49:14.309Z,9.11
2022-11-12T23:52:00.677Z,9.17
2022-11-12T23:54:47.122Z,9.13
2022-11-12T23:57:33.968Z,9.11
